Ezequiel Alonso

Olheiro - Huracán
23 Abr 2028
Domingo
Processo

Personalidade

Adaptabilidade (4) Ambição (5) Controvérsia (11) Lealdade (3) Pressão (12) Profissionalismo (14) Espírito Esportivo (17) Temperamento (17)

Perfil

Estilo de Treinamento Democrático
Licença Continental Pro
Determinação 6
Gestão de Pessoas 9
Motivação 7
Disciplina 13
Satisfação no Trabalho
100%
Fadiga
0%
Função Olheiro
Salário 52.2K p/s
Contrato 14.03.2029

Desempenho

Comportamento Bom
Eficácia do Treinamento
45%
Desenvolvimento do Jogador
45%
Prevenção de Lesões
60%
Implementação Tática
25%

Eventos Recentes

Participou de uma reunião de recrutamento 7d atrás
Participou de uma reunião de recrutamento 14d atrás
Participou de uma reunião de recrutamento 21d atrás
Participou de uma reunião de recrutamento 28d atrás
Participou de uma reunião de recrutamento 35d atrás
Participou de uma reunião de recrutamento 42d atrás
Participou de uma reunião de recrutamento 49d atrás
Participou de uma reunião de recrutamento 56d atrás

Monitorando agora

94
Jogador Clube Status Habilidade Confiança Observado Última observação Último voto
Finn Jeltsch VfB Stuttgart Ativo 145 / 161 40% 1 07.02.2028 -
Zane Albarus Shrewsbury Town Ativo 107 / 119 40% 1 07.02.2028 -
Facundo Balatti Penarol Ativo 99 / 116 40% 1 30.11.2027 -
Archie Gray Southampton Ativo 166 / 149 40% 1 30.11.2027 -
Mateo Pellegrino Fiorentina Ativo 130 / 128 40% 3 30.05.2027 -
Rafael Moreno Atletico Venezuela Ativo 104 / 107 40% 1 30.05.2027 -
Giacomo Raspadori Atalanta Ativo 142 / 147 40% 3 25.05.2027 -
Filippo Distefano Empoli Ativo 119 / 112 40% 2 20.05.2027 -
John Yeboah Venezia Ativo 126 / 117 40% 1 11.05.2027 -
Giorgi Kvernadze Frosinone Ativo 119 / 140 40% 1 06.05.2027 -
Santiago Castro AS Roma Ativo 156 / 161 40% 2 04.05.2027 -
Erick Dolly Black Aces Ativo 104 / 117 40% 2 01.05.2027 -
Job Ochieng Real Sociedad Ativo 112 / 112 40% 2 29.04.2027 -
Lorenzo Colombo Genoa Ativo 122 / 118 40% 2 23.04.2027 -
Nicolò Zaniolo Udinese Ativo 142 / 142 40% 3 21.04.2027 -
João Félix Dinamo Moscow Ativo 160 / 156 40% 1 19.04.2027 -
Amin Sarr Hellas Verona Ativo 135 / 138 40% 1 18.04.2027 -
Giorgos Koutsias Famalicao Ativo 111 / 130 40% 1 16.04.2027 -
Luis Caicedo Spartak 1918 Ativo 105 / 87 40% 1 09.04.2027 -
Stephen Amankona Aduana Stars Ativo 82 / 89 40% 1 05.04.2027 -
Jacques Siwe Rubin Ativo 131 / 112 40% 1 02.04.2027 -
Santiago Pierotti Lecce Ativo 136 / 129 40% 1 02.04.2027 -
Etiosa Ighodaro Kaizer Chiefs Ativo 125 / 118 40% 2 28.03.2027 -
Andrea Pinamonti Lazio Ativo 148 / 120 40% 2 28.03.2027 -
Ilyas Ansah Hull City Ativo 118 / 121 40% 2 27.03.2027 -
Wilson Isidor Sunderland Ativo 122 / 129 40% 2 26.03.2027 -
Thiago Brentford Ativo 161 / 129 40% 1 24.03.2027 -
Fábio Carvalho Brentford Ativo 136 / 148 40% 2 21.03.2027 -
Jørgen Strand Larsen Brighton Ativo 136 / 154 40% 1 21.03.2027 -
Abu Kamara Portsmouth Ativo 111 / 131 40% 1 20.03.2027 -
Yousef Salech Cardiff City Ativo 132 / 126 40% 2 15.03.2027 -
Tyrese Campbell Sheffield United Ativo 129 / 125 40% 1 09.03.2027 -
Nicolas Jackson Aston Villa Ativo 141 / 141 40% 2 05.03.2027 -
Georginio Rutter Brighton Ativo 137 / 135 40% 1 28.02.2027 -
Ivo Mammini Beitar Jerusalem Ativo 121 / 131 40% 3 27.02.2027 -
Tyreece Campbell Charlton Athletic Ativo 101 / 126 40% 2 27.02.2027 -
Joe Gelhardt Hull City Ativo 138 / 115 40% 3 24.02.2027 -
Stav Toriel Hapoel Tel Aviv Ativo 142 / 130 40% 3 17.02.2027 -
Assane Diao Como Ativo 140 / 162 40% 1 14.02.2027 -
Rodrigo Muniz Fulham Ativo 133 / 153 40% 1 14.02.2027 -
Marezi Portsmouth Ativo 127 / 120 40% 2 12.02.2027 -
Gonzalo Fulham Ativo 143 / 128 40% 1 05.02.2027 -
Lorent Tolaj Plymouth Argyle Ativo 103 / 124 40% 1 28.01.2027 -
Richard Koné Queens Park Rangers Ativo 118 / 114 40% 1 28.01.2027 -
Brayan Gil Baltika Ativo 128 / 112 40% 1 22.01.2027 -
John McAtee Leyton Orient Ativo 114 / 125 40% 1 09.01.2027 -
Jhon Jhon Zenit Ativo 142 / 131 40% 1 26.11.2026 -
Ferland Mendy Real Madrid Ativo 132 / 157 40% 3 25.11.2026 -
Sota Kitano Red Bull Salzburg Ativo 131 / 137 40% 1 23.11.2026 -
Edu Expósito Espanyol Ativo 134 / 156 40% 3 21.11.2026 Observar
Dale Taylor Blackpool Ativo 95 / 114 40% 1 17.11.2026 -
Matías Contrera Hrvatski Dragovoljac Ativo 104 / 111 40% 2 15.11.2026 -
Paik Seung-Ho Birmingham Ativo 127 / 131 40% 1 11.11.2026 -
Álex Berenguer Lokomotiv Moscow Ativo 161 / 167 40% 1 08.11.2026 -
Matthew Targett Hull City Ativo 139 / 141 40% 1 05.11.2026 -
Kevin Zenón Boca Juniors Ativo 134 / 129 40% 2 02.11.2026 -
Rico Henry River Plate Ativo 143 / 149 40% 2 31.10.2026 -
Ryan Gauld Vancouver Whitecaps Ativo 125 / 142 40% 1 31.10.2026 -
Eric Ramírez Ankaragucu Ativo 98 / 131 40% 1 29.10.2026 -
Samuele Vignato HNK Rijeka Ativo 117 / 117 40% 1 29.10.2026 -
Fernando Mimbacas Juventud Ativo 106 / 113 40% 1 28.10.2026 -
Dwight McNeil Crystal Palace Ativo 125 / 137 40% 1 28.10.2026 -
Kévin Denkey FC Cincinnati Ativo 125 / 134 40% 3 27.10.2026 -
Ritsu Doan Gamba Osaka Ativo 160 / 164 40% 1 21.10.2026 -
Alexander Díaz Deportivo Riestra Ativo 114 / 115 40% 1 20.10.2026 -
Duncan McGuire Houston Dynamo Ativo 120 / 118 40% 1 18.10.2026 -
Justo Giani Umraniyespor Ativo 111 / 124 40% 1 18.10.2026 -
Emanuel Coronel Rosario Central Ativo 123 / 115 40% 1 17.10.2026 -
Alejo Cruz Juventud Ativo 122 / 120 40% 1 16.10.2026 -
Manu Morlanes Mallorca Ativo 122 / 140 40% 1 09.10.2026 -
Carlos Rotondi Cruz Azul Ativo 129 / 129 40% 3 08.10.2026 -
Agustín Palavecino Cruz Azul Ativo 144 / 131 40% 1 08.10.2026 -
Carlos Álvarez Club America Ativo 129 / 140 40% 1 06.10.2026 -
César Araújo Tigres Ativo 130 / 126 40% 1 05.10.2026 -
Jordi Cortizo Leon Ativo 136 / 123 40% 1 03.10.2026 -
Duk Atlas Ativo 105 / 118 40% 1 01.10.2026 -
Alireza Yazdani Padideh Ativo 119 / 112 40% 1 01.10.2026 -
Esteban Obregón Montevideo City Torque Ativo 104 / 109 40% 2 30.09.2026 -
Facundo Batista Penarol Ativo 121 / 131 40% 1 28.09.2026 -
Richard Ledezma Guadalajara Ativo 135 / 126 40% 1 24.09.2026 -
Carlos Gruezo Santos Laguna Ativo 124 / 128 40% 1 24.09.2026 -
Martín Ojeda Orlando City Ativo 141 / 135 40% 1 20.09.2026 -
Bryan González Guadalajara Ativo 131 / 125 40% 1 19.09.2026 -
Germán Berterame Inter Miami CF Ativo 133 / 120 40% 1 18.09.2026 -
Xavier Biscayzacú Defensor Sporting Ativo 130 / 134 40% 1 18.09.2026 -
Misael Sosa Godoy Cruz Ativo 105 / 117 40% 1 17.09.2026 -
Wessam Abou Ali Columbus Crew Ativo 133 / 128 40% 1 16.09.2026 -
Bruno Larregui Juventud Ativo 124 / 127 40% 1 16.09.2026 -
Diego Lainez Tigres Ativo 139 / 117 40% 2 15.09.2026 -
Josh Sargent Toronto FC Ativo 117 / 137 40% 1 12.09.2026 -
Facundo de León Progreso Ativo 98 / 113 40% 1 12.09.2026 -
Nacho Vidal Santos Laguna Ativo 124 / 133 40% 1 09.09.2026 -
Rubén Duarte Pumas UNAM Ativo 137 / 135 40% 1 09.09.2026 -
Antonio Blanco Alavés Ativo 150 / 157 40% 1 01.08.2026 -